sensor_id;sensor_type;location;lat;lon;timestamp;P1;durP1;ratioP1;P2;durP2;ratioP2
1775;SDS011;885;42.626;23.200;2023-08-24T00:01:54;12.10;;;11.00;;
1775;SDS011;885;42.626;23.200;2023-08-24T00:04:21;12.47;;;11.20;;
1775;SDS011;885;42.626;23.200;2023-08-24T00:06:48;16.20;;;12.17;;
1775;SDS011;885;42.626;23.200;2023-08-24T00:09:15;12.67;;;11.33;;
1775;SDS011;885;42.626;23.200;2023-08-24T00:11:42;12.73;;;11.63;;
1775;SDS011;885;42.626;23.200;2023-08-24T00:14:09;11.97;;;10.80;;
1775;SDS011;885;42.626;23.200;2023-08-24T00:16:36;12.10;;;11.00;;
1775;SDS011;885;42.626;23.200;2023-08-24T00:19:05;13.27;;;11.50;;
1775;SDS011;885;42.626;23.200;2023-08-24T00:21:32;11.73;;;10.63;;
1775;SDS011;885;42.626;23.200;2023-08-24T00:23:58;17.40;;;10.83;;
1775;SDS011;885;42.626;23.200;2023-08-24T00:26:25;12.27;;;11.03;;
1775;SDS011;885;42.626;23.200;2023-08-24T00:28:52;12.03;;;10.87;;
1775;SDS011;885;42.626;23.200;2023-08-24T00:31:19;11.57;;;10.53;;
1775;SDS011;885;42.626;23.200;2023-08-24T00:33:46;11.77;;;10.43;;
1775;SDS011;885;42.626;23.200;2023-08-24T00:36:14;11.70;;;10.40;;
1775;SDS011;885;42.626;23.200;2023-08-24T00:38:41;12.47;;;11.20;;
1775;SDS011;885;42.626;23.200;2023-08-24T00:41:08;12.43;;;11.10;;
1775;SDS011;885;42.626;23.200;2023-08-24T00:43:35;13.50;;;12.23;;
1775;SDS011;885;42.626;23.200;2023-08-24T00:46:02;12.00;;;10.10;;
1775;SDS011;885;42.626;23.200;2023-08-24T00:48:30;12.13;;;10.53;;
1775;SDS011;885;42.626;23.200;2023-08-24T00:50:59;12.83;;;11.63;;
1775;SDS011;885;42.626;23.200;2023-08-24T00:53:28;12.90;;;11.47;;
1775;SDS011;885;42.626;23.200;2023-08-24T00:55:56;13.30;;;12.10;;
1775;SDS011;885;42.626;23.200;2023-08-24T00:58:23;13.83;;;11.90;;
1775;SDS011;885;42.626;23.200;2023-08-24T01:00:51;12.10;;;10.90;;
1775;SDS011;885;42.626;23.200;2023-08-24T01:03:21;12.03;;;10.83;;
1775;SDS011;885;42.626;23.200;2023-08-24T01:05:48;11.57;;;10.47;;
1775;SDS011;885;42.626;23.200;2023-08-24T01:08:15;11.87;;;10.40;;
1775;SDS011;885;42.626;23.200;2023-08-24T01:10:45;12.40;;;11.30;;
1775;SDS011;885;42.626;23.200;2023-08-24T01:13:18;12.50;;;11.40;;
1775;SDS011;885;42.626;23.200;2023-08-24T01:15:51;10.57;;;9.57;;
1775;SDS011;885;42.626;23.200;2023-08-24T01:18:24;11.70;;;10.50;;
1775;SDS011;885;42.626;23.200;2023-08-24T01:20:52;10.40;;;9.50;;
1775;SDS011;885;42.626;23.200;2023-08-24T01:26:13;11.83;;;9.83;;
1775;SDS011;885;42.626;23.200;2023-08-24T01:28:43;11.03;;;9.83;;
1775;SDS011;885;42.626;23.200;2023-08-24T01:31:11;11.30;;;10.10;;
1775;SDS011;885;42.626;23.200;2023-08-24T01:33:39;11.70;;;10.60;;
1775;SDS011;885;42.626;23.200;2023-08-24T01:36:07;9.33;;;8.47;;
1775;SDS011;885;42.626;23.200;2023-08-24T01:38:34;10.97;;;9.87;;
1775;SDS011;885;42.626;23.200;2023-08-24T01:41:04;11.17;;;8.90;;
1775;SDS011;885;42.626;23.200;2023-08-24T01:43:39;10.30;;;9.40;;
1775;SDS011;885;42.626;23.200;2023-08-24T01:46:08;9.03;;;8.23;;
1775;SDS011;885;42.626;23.200;2023-08-24T01:48:37;9.73;;;8.73;;
1775;SDS011;885;42.626;23.200;2023-08-24T01:51:05;10.67;;;9.43;;
1775;SDS011;885;42.626;23.200;2023-08-24T01:53:35;9.70;;;8.70;;
1775;SDS011;885;42.626;23.200;2023-08-24T01:56:07;9.70;;;8.70;;
1775;SDS011;885;42.626;23.200;2023-08-24T01:58:35;11.10;;;10.10;;
1775;SDS011;885;42.626;23.200;2023-08-24T02:01:03;11.67;;;10.50;;
1775;SDS011;885;42.626;23.200;2023-08-24T02:03:33;10.90;;;9.90;;
1775;SDS011;885;42.626;23.200;2023-08-24T02:06:00;10.77;;;9.67;;
1775;SDS011;885;42.626;23.200;2023-08-24T02:08:27;10.20;;;9.13;;
1775;SDS011;885;42.626;23.200;2023-08-24T02:10:54;13.23;;;9.93;;
1775;SDS011;885;42.626;23.200;2023-08-24T02:13:20;9.87;;;8.97;;
1775;SDS011;885;42.626;23.200;2023-08-24T02:15:47;10.20;;;9.20;;
1775;SDS011;885;42.626;23.200;2023-08-24T02:18:15;9.90;;;9.00;;
1775;SDS011;885;42.626;23.200;2023-08-24T02:20:42;10.77;;;9.70;;
1775;SDS011;885;42.626;23.200;2023-08-24T02:23:09;9.77;;;8.80;;
1775;SDS011;885;42.626;23.200;2023-08-24T02:25:41;10.33;;;9.33;;
1775;SDS011;885;42.626;23.200;2023-08-24T02:28:08;9.53;;;8.53;;
1775;SDS011;885;42.626;23.200;2023-08-24T02:30:36;9.77;;;8.80;;
1775;SDS011;885;42.626;23.200;2023-08-24T02:33:03;9.70;;;8.80;;
1775;SDS011;885;42.626;23.200;2023-08-24T02:35:32;10.97;;;9.87;;
1775;SDS011;885;42.626;23.200;2023-08-24T02:37:58;10.40;;;9.20;;
1775;SDS011;885;42.626;23.200;2023-08-24T02:40:25;9.00;;;8.10;;
1775;SDS011;885;42.626;23.200;2023-08-24T02:42:52;10.03;;;8.90;;
1775;SDS011;885;42.626;23.200;2023-08-24T02:45:19;11.03;;;9.20;;
1775;SDS011;885;42.626;23.200;2023-08-24T02:47:45;9.70;;;8.70;;
1775;SDS011;885;42.626;23.200;2023-08-24T02:50:12;10.03;;;7.97;;
1775;SDS011;885;42.626;23.200;2023-08-24T02:52:40;13.40;;;10.37;;
1775;SDS011;885;42.626;23.200;2023-08-24T02:55:07;9.47;;;8.43;;
1775;SDS011;885;42.626;23.200;2023-08-24T02:57:35;10.57;;;9.57;;
1775;SDS011;885;42.626;23.200;2023-08-24T03:00:02;10.17;;;9.17;;
1775;SDS011;885;42.626;23.200;2023-08-24T03:02:31;10.17;;;9.17;;
1775;SDS011;885;42.626;23.200;2023-08-24T03:04:58;10.50;;;9.50;;
1775;SDS011;885;42.626;23.200;2023-08-24T03:07:25;10.87;;;9.43;;
1775;SDS011;885;42.626;23.200;2023-08-24T03:09:54;10.73;;;9.73;;
1775;SDS011;885;42.626;23.200;2023-08-24T03:12:20;9.83;;;8.93;;
1775;SDS011;885;42.626;23.200;2023-08-24T03:14:50;11.80;;;9.63;;
1775;SDS011;885;42.626;23.200;2023-08-24T03:17:17;10.03;;;9.10;;
1775;SDS011;885;42.626;23.200;2023-08-24T03:19:44;10.67;;;9.70;;
1775;SDS011;885;42.626;23.200;2023-08-24T03:22:11;11.37;;;9.40;;
1775;SDS011;885;42.626;23.200;2023-08-24T03:24:37;12.03;;;10.00;;
1775;SDS011;885;42.626;23.200;2023-08-24T03:27:06;12.50;;;9.90;;
1775;SDS011;885;42.626;23.200;2023-08-24T03:29:32;15.23;;;9.77;;
1775;SDS011;885;42.626;23.200;2023-08-24T03:31:59;11.03;;;10.03;;
1775;SDS011;885;42.626;23.200;2023-08-24T03:34:26;10.50;;;9.50;;
1775;SDS011;885;42.626;23.200;2023-08-24T03:36:54;10.67;;;9.67;;
1775;SDS011;885;42.626;23.200;2023-08-24T03:39:21;10.33;;;9.43;;
1775;SDS011;885;42.626;23.200;2023-08-24T03:41:48;11.53;;;10.43;;
1775;SDS011;885;42.626;23.200;2023-08-24T03:44:16;10.00;;;9.10;;
1775;SDS011;885;42.626;23.200;2023-08-24T03:46:43;10.47;;;9.47;;
1775;SDS011;885;42.626;23.200;2023-08-24T03:49:09;11.67;;;10.57;;
1775;SDS011;885;42.626;23.200;2023-08-24T03:51:36;12.33;;;9.50;;
1775;SDS011;885;42.626;23.200;2023-08-24T03:54:03;10.40;;;9.43;;
1775;SDS011;885;42.626;23.200;2023-08-24T03:56:30;10.43;;;9.43;;
1775;SDS011;885;42.626;23.200;2023-08-24T03:58:57;10.07;;;9.07;;
1775;SDS011;885;42.626;23.200;2023-08-24T04:01:25;10.60;;;9.50;;
1775;SDS011;885;42.626;23.200;2023-08-24T04:03:52;11.13;;;9.97;;
1775;SDS011;885;42.626;23.200;2023-08-24T04:06:19;10.43;;;9.30;;
1775;SDS011;885;42.626;23.200;2023-08-24T04:08:46;11.63;;;10.47;;
1775;SDS011;885;42.626;23.200;2023-08-24T04:11:12;11.23;;;9.90;;
1775;SDS011;885;42.626;23.200;2023-08-24T04:13:39;11.80;;;10.70;;
1775;SDS011;885;42.626;23.200;2023-08-24T04:16:06;12.03;;;10.83;;
1775;SDS011;885;42.626;23.200;2023-08-24T04:18:34;11.67;;;10.47;;
1775;SDS011;885;42.626;23.200;2023-08-24T04:21:01;13.57;;;10.90;;
1775;SDS011;885;42.626;23.200;2023-08-24T04:23:27;9.63;;;8.73;;
1775;SDS011;885;42.626;23.200;2023-08-24T04:25:54;10.90;;;9.80;;
1775;SDS011;885;42.626;23.200;2023-08-24T04:28:21;11.07;;;9.97;;
1775;SDS011;885;42.626;23.200;2023-08-24T04:30:49;11.10;;;10.00;;
1775;SDS011;885;42.626;23.200;2023-08-24T04:33:17;10.67;;;9.67;;
1775;SDS011;885;42.626;23.200;2023-08-24T04:35:46;10.63;;;9.63;;
1775;SDS011;885;42.626;23.200;2023-08-24T04:38:13;11.47;;;10.37;;
1775;SDS011;885;42.626;23.200;2023-08-24T04:40:48;11.47;;;10.33;;
1775;SDS011;885;42.626;23.200;2023-08-24T04:43:16;11.00;;;10.00;;
1775;SDS011;885;42.626;23.200;2023-08-24T04:45:43;12.07;;;10.97;;
1775;SDS011;885;42.626;23.200;2023-08-24T04:48:12;10.97;;;9.87;;
1775;SDS011;885;42.626;23.200;2023-08-24T04:50:39;12.40;;;11.10;;
1775;SDS011;885;42.626;23.200;2023-08-24T04:53:09;12.83;;;11.50;;
1775;SDS011;885;42.626;23.200;2023-08-24T04:55:36;11.77;;;10.67;;
1775;SDS011;885;42.626;23.200;2023-08-24T04:58:03;12.00;;;10.80;;
1775;SDS011;885;42.626;23.200;2023-08-24T05:00:30;9.90;;;9.00;;
1775;SDS011;885;42.626;23.200;2023-08-24T05:02:58;10.80;;;9.80;;
1775;SDS011;885;42.626;23.200;2023-08-24T05:05:25;10.50;;;9.50;;
1775;SDS011;885;42.626;23.200;2023-08-24T05:07:53;10.47;;;9.47;;
1775;SDS011;885;42.626;23.200;2023-08-24T05:10:21;12.30;;;11.10;;
1775;SDS011;885;42.626;23.200;2023-08-24T05:12:48;12.43;;;11.23;;
1775;SDS011;885;42.626;23.200;2023-08-24T05:15:15;12.57;;;11.43;;
1775;SDS011;885;42.626;23.200;2023-08-24T05:17:42;12.73;;;11.47;;
1775;SDS011;885;42.626;23.200;2023-08-24T05:20:09;12.10;;;10.90;;
1775;SDS011;885;42.626;23.200;2023-08-24T05:22:37;13.30;;;12.00;;
1775;SDS011;885;42.626;23.200;2023-08-24T05:25:04;13.47;;;12.07;;
1775;SDS011;885;42.626;23.200;2023-08-24T05:27:33;13.63;;;12.23;;
1775;SDS011;885;42.626;23.200;2023-08-24T05:29:59;12.87;;;11.57;;
1775;SDS011;885;42.626;23.200;2023-08-24T05:32:26;13.00;;;11.70;;
1775;SDS011;885;42.626;23.200;2023-08-24T05:34:56;11.93;;;10.73;;
1775;SDS011;885;42.626;23.200;2023-08-24T05:39:50;13.23;;;11.93;;
1775;SDS011;885;42.626;23.200;2023-08-24T05:42:16;13.90;;;11.87;;
1775;SDS011;885;42.626;23.200;2023-08-24T05:44:44;12.07;;;10.97;;
1775;SDS011;885;42.626;23.200;2023-08-24T05:47:11;13.53;;;12.23;;
1775;SDS011;885;42.626;23.200;2023-08-24T05:49:38;14.37;;;11.50;;
1775;SDS011;885;42.626;23.200;2023-08-24T05:52:05;13.50;;;12.13;;
1775;SDS011;885;42.626;23.200;2023-08-24T05:54:32;12.23;;;11.20;;
1775;SDS011;885;42.626;23.200;2023-08-24T05:56:58;13.00;;;11.70;;
1775;SDS011;885;42.626;23.200;2023-08-24T05:59:26;12.30;;;11.20;;
1775;SDS011;885;42.626;23.200;2023-08-24T06:01:54;13.03;;;11.83;;
1775;SDS011;885;42.626;23.200;2023-08-24T06:04:21;13.97;;;11.93;;
1775;SDS011;885;42.626;23.200;2023-08-24T06:06:48;16.67;;;12.07;;
1775;SDS011;885;42.626;23.200;2023-08-24T06:09:14;14.03;;;12.10;;
1775;SDS011;885;42.626;23.200;2023-08-24T06:11:41;13.77;;;12.33;;
1775;SDS011;885;42.626;23.200;2023-08-24T06:14:08;17.10;;;13.50;;
1775;SDS011;885;42.626;23.200;2023-08-24T06:16:35;13.50;;;12.07;;
1775;SDS011;885;42.626;23.200;2023-08-24T06:19:03;15.70;;;12.70;;
1775;SDS011;885;42.626;23.200;2023-08-24T06:21:30;12.20;;;11.00;;
1775;SDS011;885;42.626;23.200;2023-08-24T06:23:57;13.43;;;12.10;;
1775;SDS011;885;42.626;23.200;2023-08-24T06:26:24;13.20;;;11.90;;
1775;SDS011;885;42.626;23.200;2023-08-24T06:28:51;12.97;;;11.67;;
1775;SDS011;885;42.626;23.200;2023-08-24T06:31:17;14.10;;;12.70;;
1775;SDS011;885;42.626;23.200;2023-08-24T06:33:44;14.57;;;13.27;;
1775;SDS011;885;42.626;23.200;2023-08-24T06:36:12;15.73;;;13.93;;
1775;SDS011;885;42.626;23.200;2023-08-24T06:38:39;16.53;;;14.97;;
1775;SDS011;885;42.626;23.200;2023-08-24T06:41:06;15.87;;;14.07;;
1775;SDS011;885;42.626;23.200;2023-08-24T06:43:36;13.33;;;12.00;;
1775;SDS011;885;42.626;23.200;2023-08-24T06:46:04;14.07;;;12.53;;
1775;SDS011;885;42.626;23.200;2023-08-24T06:48:33;15.60;;;11.80;;
1775;SDS011;885;42.626;23.200;2023-08-24T06:51:00;14.80;;;13.50;;
1775;SDS011;885;42.626;23.200;2023-08-24T06:53:28;15.17;;;12.97;;
1775;SDS011;885;42.626;23.200;2023-08-24T06:55:55;13.27;;;11.97;;
1775;SDS011;885;42.626;23.200;2023-08-24T06:58:22;14.27;;;12.87;;
1775;SDS011;885;42.626;23.200;2023-08-24T07:00:49;15.90;;;12.70;;
1775;SDS011;885;42.626;23.200;2023-08-24T07:03:17;16.53;;;12.40;;
1775;SDS011;885;42.626;23.200;2023-08-24T07:05:44;14.20;;;12.70;;
1775;SDS011;885;42.626;23.200;2023-08-24T07:08:12;14.47;;;13.07;;
1775;SDS011;885;42.626;23.200;2023-08-24T07:10:42;13.40;;;12.10;;
1775;SDS011;885;42.626;23.200;2023-08-24T07:13:10;15.20;;;11.80;;
1775;SDS011;885;42.626;23.200;2023-08-24T07:15:37;14.70;;;11.53;;
1775;SDS011;885;42.626;23.200;2023-08-24T07:18:04;12.73;;;11.53;;
1775;SDS011;885;42.626;23.200;2023-08-24T07:20:31;13.00;;;11.60;;
1775;SDS011;885;42.626;23.200;2023-08-24T07:22:58;13.77;;;12.53;;
1775;SDS011;885;42.626;23.200;2023-08-24T07:25:25;13.30;;;12.10;;
1775;SDS011;885;42.626;23.200;2023-08-24T07:27:54;12.53;;;11.40;;
1775;SDS011;885;42.626;23.200;2023-08-24T07:30:23;13.97;;;12.57;;
1775;SDS011;885;42.626;23.200;2023-08-24T07:32:51;13.57;;;12.27;;
1775;SDS011;885;42.626;23.200;2023-08-24T07:35:18;13.77;;;12.37;;
1775;SDS011;885;42.626;23.200;2023-08-24T07:37:45;13.27;;;11.97;;
1775;SDS011;885;42.626;23.200;2023-08-24T07:40:13;13.07;;;11.67;;
1775;SDS011;885;42.626;23.200;2023-08-24T07:42:44;13.47;;;12.17;;
1775;SDS011;885;42.626;23.200;2023-08-24T07:45:13;16.70;;;11.20;;
1775;SDS011;885;42.626;23.200;2023-08-24T07:47:40;13.13;;;10.90;;
1775;SDS011;885;42.626;23.200;2023-08-24T07:50:07;11.60;;;10.40;;
1775;SDS011;885;42.626;23.200;2023-08-24T07:52:35;12.10;;;11.00;;
1775;SDS011;885;42.626;23.200;2023-08-24T07:55:03;11.77;;;10.53;;
1775;SDS011;885;42.626;23.200;2023-08-24T07:57:30;12.70;;;11.40;;
1775;SDS011;885;42.626;23.200;2023-08-24T07:59:57;11.00;;;10.03;;
1775;SDS011;885;42.626;23.200;2023-08-24T08:02:25;12.20;;;10.90;;
1775;SDS011;885;42.626;23.200;2023-08-24T08:04:55;14.33;;;11.33;;
1775;SDS011;885;42.626;23.200;2023-08-24T08:07:23;11.97;;;10.87;;
1775;SDS011;885;42.626;23.200;2023-08-24T08:09:50;15.50;;;11.20;;
1775;SDS011;885;42.626;23.200;2023-08-24T08:12:17;12.00;;;10.80;;
1775;SDS011;885;42.626;23.200;2023-08-24T08:14:44;12.77;;;11.67;;
1775;SDS011;885;42.626;23.200;2023-08-24T08:17:11;14.10;;;11.77;;
1775;SDS011;885;42.626;23.200;2023-08-24T08:19:39;13.00;;;11.70;;
1775;SDS011;885;42.626;23.200;2023-08-24T08:22:06;13.63;;;11.73;;
1775;SDS011;885;42.626;23.200;2023-08-24T08:24:33;13.73;;;12.30;;
1775;SDS011;885;42.626;23.200;2023-08-24T08:27:00;12.30;;;10.90;;
1775;SDS011;885;42.626;23.200;2023-08-24T08:29:27;13.70;;;12.40;;
1775;SDS011;885;42.626;23.200;2023-08-24T08:31:54;13.33;;;12.03;;
1775;SDS011;885;42.626;23.200;2023-08-24T08:34:21;13.37;;;12.00;;
1775;SDS011;885;42.626;23.200;2023-08-24T08:36:49;13.53;;;12.27;;
1775;SDS011;885;42.626;23.200;2023-08-24T08:39:16;13.07;;;11.80;;
1775;SDS011;885;42.626;23.200;2023-08-24T08:41:44;15.23;;;12.13;;
1775;SDS011;885;42.626;23.200;2023-08-24T08:44:12;14.63;;;13.10;;
1775;SDS011;885;42.626;23.200;2023-08-24T08:46:40;13.13;;;11.93;;
1775;SDS011;885;42.626;23.200;2023-08-24T08:49:08;13.27;;;11.90;;
1775;SDS011;885;42.626;23.200;2023-08-24T08:51:36;14.33;;;12.93;;
1775;SDS011;885;42.626;23.200;2023-08-24T08:54:05;13.97;;;12.57;;
1775;SDS011;885;42.626;23.200;2023-08-24T08:56:32;13.17;;;11.87;;
1775;SDS011;885;42.626;23.200;2023-08-24T08:58:59;14.43;;;12.87;;
1775;SDS011;885;42.626;23.200;2023-08-24T09:01:26;14.13;;;12.57;;
1775;SDS011;885;42.626;23.200;2023-08-24T09:03:54;14.80;;;13.30;;
1775;SDS011;885;42.626;23.200;2023-08-24T09:06:21;14.50;;;12.87;;
1775;SDS011;885;42.626;23.200;2023-08-24T09:08:48;14.30;;;13.07;;
1775;SDS011;885;42.626;23.200;2023-08-24T09:11:17;13.67;;;12.20;;
1775;SDS011;885;42.626;23.200;2023-08-24T09:13:44;16.37;;;14.50;;
1775;SDS011;885;42.626;23.200;2023-08-24T09:16:11;13.90;;;12.70;;
1775;SDS011;885;42.626;23.200;2023-08-24T09:18:45;15.00;;;12.80;;
1775;SDS011;885;42.626;23.200;2023-08-24T09:21:12;13.40;;;12.30;;
1775;SDS011;885;42.626;23.200;2023-08-24T09:23:43;13.93;;;12.63;;
1775;SDS011;885;42.626;23.200;2023-08-24T09:26:11;13.17;;;12.10;;
1775;SDS011;885;42.626;23.200;2023-08-24T09:28:39;12.73;;;11.60;;
1775;SDS011;885;42.626;23.200;2023-08-24T09:31:11;13.00;;;11.83;;
1775;SDS011;885;42.626;23.200;2023-08-24T09:33:38;13.33;;;12.30;;
1775;SDS011;885;42.626;23.200;2023-08-24T09:36:10;13.23;;;12.03;;
1775;SDS011;885;42.626;23.200;2023-08-24T09:38:45;13.83;;;12.53;;
1775;SDS011;885;42.626;23.200;2023-08-24T09:41:12;12.53;;;11.53;;
1775;SDS011;885;42.626;23.200;2023-08-24T09:43:41;13.70;;;12.60;;
1775;SDS011;885;42.626;23.200;2023-08-24T09:46:07;13.17;;;11.87;;
1775;SDS011;885;42.626;23.200;2023-08-24T09:48:34;12.23;;;10.73;;
1775;SDS011;885;42.626;23.200;2023-08-24T09:51:03;13.10;;;11.93;;
1775;SDS011;885;42.626;23.200;2023-08-24T09:53:32;12.67;;;11.43;;
1775;SDS011;885;42.626;23.200;2023-08-24T09:56:03;14.30;;;12.03;;
1775;SDS011;885;42.626;23.200;2023-08-24T09:58:32;12.20;;;11.20;;
1775;SDS011;885;42.626;23.200;2023-08-24T10:01:01;12.50;;;11.50;;
1775;SDS011;885;42.626;23.200;2023-08-24T10:03:32;16.10;;;11.63;;
1775;SDS011;885;42.626;23.200;2023-08-24T10:06:02;12.30;;;11.30;;
1775;SDS011;885;42.626;23.200;2023-08-24T10:08:32;13.57;;;12.17;;
1775;SDS011;885;42.626;23.200;2023-08-24T10:11:02;12.07;;;11.13;;
1775;SDS011;885;42.626;23.200;2023-08-24T10:13:33;12.10;;;10.90;;
1775;SDS011;885;42.626;23.200;2023-08-24T10:16:07;10.57;;;9.67;;
1775;SDS011;885;42.626;23.200;2023-08-24T10:18:35;12.10;;;10.90;;
1775;SDS011;885;42.626;23.200;2023-08-24T10:21:03;12.37;;;10.97;;
1775;SDS011;885;42.626;23.200;2023-08-24T10:23:30;13.83;;;11.40;;
1775;SDS011;885;42.626;23.200;2023-08-24T10:26:00;11.97;;;10.80;;
1775;SDS011;885;42.626;23.200;2023-08-24T10:28:30;12.53;;;11.23;;
1775;SDS011;885;42.626;23.200;2023-08-24T10:30:57;13.27;;;12.07;;
1775;SDS011;885;42.626;23.200;2023-08-24T10:33:28;13.60;;;12.20;;
1775;SDS011;885;42.626;23.200;2023-08-24T10:35:57;11.47;;;10.40;;
1775;SDS011;885;42.626;23.200;2023-08-24T10:38:24;13.40;;;12.20;;
1775;SDS011;885;42.626;23.200;2023-08-24T10:40:52;10.80;;;9.90;;
1775;SDS011;885;42.626;23.200;2023-08-24T10:43:20;11.60;;;10.60;;
1775;SDS011;885;42.626;23.200;2023-08-24T10:45:54;11.43;;;10.37;;
1775;SDS011;885;42.626;23.200;2023-08-24T10:48:22;13.30;;;11.20;;
1775;SDS011;885;42.626;23.200;2023-08-24T10:53:51;10.80;;;9.80;;
1775;SDS011;885;42.626;23.200;2023-08-24T10:56:19;11.87;;;10.87;;
1775;SDS011;885;42.626;23.200;2023-08-24T10:58:47;11.13;;;10.10;;
1775;SDS011;885;42.626;23.200;2023-08-24T11:01:34;12.00;;;10.60;;
1775;SDS011;885;42.626;23.200;2023-08-24T11:04:04;11.70;;;10.20;;
1775;SDS011;885;42.626;23.200;2023-08-24T11:06:33;12.63;;;11.50;;
1775;SDS011;885;42.626;23.200;2023-08-24T11:09:06;10.53;;;9.63;;
1775;SDS011;885;42.626;23.200;2023-08-24T11:11:39;11.07;;;10.10;;
1775;SDS011;885;42.626;23.200;2023-08-24T11:14:13;10.73;;;9.73;;
1775;SDS011;885;42.626;23.200;2023-08-24T11:16:41;10.47;;;9.57;;
1775;SDS011;885;42.626;23.200;2023-08-24T11:19:08;13.27;;;11.30;;
1775;SDS011;885;42.626;23.200;2023-08-24T11:21:39;11.90;;;10.90;;
1775;SDS011;885;42.626;23.200;2023-08-24T11:24:06;11.30;;;10.20;;
1775;SDS011;885;42.626;23.200;2023-08-24T11:26:33;11.53;;;10.63;;
1775;SDS011;885;42.626;23.200;2023-08-24T11:29:04;13.67;;;12.30;;
1775;SDS011;885;42.626;23.200;2023-08-24T11:31:32;11.50;;;10.57;;
1775;SDS011;885;42.626;23.200;2023-08-24T11:33:59;12.20;;;11.00;;
1775;SDS011;885;42.626;23.200;2023-08-24T11:36:26;11.80;;;10.70;;
1775;SDS011;885;42.626;23.200;2023-08-24T11:38:56;11.10;;;10.03;;
1775;SDS011;885;42.626;23.200;2023-08-24T11:41:23;15.47;;;11.97;;
1775;SDS011;885;42.626;23.200;2023-08-24T11:43:58;16.63;;;11.90;;
1775;SDS011;885;42.626;23.200;2023-08-24T11:46:27;14.77;;;11.43;;
1775;SDS011;885;42.626;23.200;2023-08-24T11:48:55;16.57;;;11.60;;
1775;SDS011;885;42.626;23.200;2023-08-24T11:51:22;11.67;;;10.67;;
1775;SDS011;885;42.626;23.200;2023-08-24T11:53:49;12.07;;;10.87;;
1775;SDS011;885;42.626;23.200;2023-08-24T11:56:17;12.40;;;11.20;;
1775;SDS011;885;42.626;23.200;2023-08-24T11:58:47;11.60;;;10.50;;
1775;SDS011;885;42.626;23.200;2023-08-24T12:01:14;12.30;;;11.10;;
1775;SDS011;885;42.626;23.200;2023-08-24T12:03:42;15.90;;;11.87;;
1775;SDS011;885;42.626;23.200;2023-08-24T12:06:10;12.80;;;11.60;;
1775;SDS011;885;42.626;23.200;2023-08-24T12:08:37;11.80;;;10.70;;
1775;SDS011;885;42.626;23.200;2023-08-24T12:11:09;14.40;;;11.43;;
1775;SDS011;885;42.626;23.200;2023-08-24T12:13:42;12.60;;;11.50;;
1775;SDS011;885;42.626;23.200;2023-08-24T12:16:09;12.57;;;11.37;;
1775;SDS011;885;42.626;23.200;2023-08-24T12:18:45;12.47;;;11.17;;
1775;SDS011;885;42.626;23.200;2023-08-24T12:21:13;13.00;;;11.77;;
1775;SDS011;885;42.626;23.200;2023-08-24T12:23:40;13.47;;;12.10;;
1775;SDS011;885;42.626;23.200;2023-08-24T12:26:07;13.60;;;12.00;;
1775;SDS011;885;42.626;23.200;2023-08-24T12:28:34;14.10;;;12.13;;
1775;SDS011;885;42.626;23.200;2023-08-24T12:31:03;14.40;;;12.97;;
1775;SDS011;885;42.626;23.200;2023-08-24T12:33:30;12.40;;;11.30;;
1775;SDS011;885;42.626;23.200;2023-08-24T12:35:58;13.60;;;12.33;;
1775;SDS011;885;42.626;23.200;2023-08-24T12:38:25;14.43;;;13.03;;
1775;SDS011;885;42.626;23.200;2023-08-24T12:40:52;14.20;;;13.00;;
1775;SDS011;885;42.626;23.200;2023-08-24T12:43:20;15.13;;;13.67;;
1775;SDS011;885;42.626;23.200;2023-08-24T12:45:46;13.80;;;12.50;;
1775;SDS011;885;42.626;23.200;2023-08-24T12:48:15;15.17;;;13.67;;
1775;SDS011;885;42.626;23.200;2023-08-24T12:50:42;13.60;;;12.37;;
1775;SDS011;885;42.626;23.200;2023-08-24T12:53:08;13.10;;;11.93;;
1775;SDS011;885;42.626;23.200;2023-08-24T12:55:36;14.90;;;12.97;;
1775;SDS011;885;42.626;23.200;2023-08-24T12:58:05;13.87;;;12.70;;
1775;SDS011;885;42.626;23.200;2023-08-24T13:00:32;13.90;;;12.70;;
1775;SDS011;885;42.626;23.200;2023-08-24T13:02:58;14.37;;;13.00;;
1775;SDS011;885;42.626;23.200;2023-08-24T13:05:27;12.73;;;11.73;;
1775;SDS011;885;42.626;23.200;2023-08-24T13:07:53;11.73;;;10.73;;
1775;SDS011;885;42.626;23.200;2023-08-24T13:10:21;12.20;;;11.17;;
1775;SDS011;885;42.626;23.200;2023-08-24T13:12:48;11.87;;;10.77;;
1775;SDS011;885;42.626;23.200;2023-08-24T13:15:15;13.30;;;11.63;;
1775;SDS011;885;42.626;23.200;2023-08-24T13:17:41;11.60;;;10.57;;
1775;SDS011;885;42.626;23.200;2023-08-24T13:20:08;11.70;;;10.60;;
1775;SDS011;885;42.626;23.200;2023-08-24T13:22:36;13.03;;;11.90;;
1775;SDS011;885;42.626;23.200;2023-08-24T13:25:03;14.63;;;11.07;;
1775;SDS011;885;42.626;23.200;2023-08-24T13:27:30;12.30;;;11.13;;
1775;SDS011;885;42.626;23.200;2023-08-24T13:29:59;11.23;;;10.10;;
1775;SDS011;885;42.626;23.200;2023-08-24T13:32:27;12.30;;;11.20;;
1775;SDS011;885;42.626;23.200;2023-08-24T13:34:55;12.70;;;11.60;;
1775;SDS011;885;42.626;23.200;2023-08-24T13:37:22;12.43;;;11.33;;
1775;SDS011;885;42.626;23.200;2023-08-24T13:39:51;11.73;;;10.63;;
1775;SDS011;885;42.626;23.200;2023-08-24T13:42:18;12.27;;;11.17;;
1775;SDS011;885;42.626;23.200;2023-08-24T13:44:44;12.37;;;11.10;;
1775;SDS011;885;42.626;23.200;2023-08-24T13:47:11;12.20;;;11.03;;
1775;SDS011;885;42.626;23.200;2023-08-24T13:49:38;11.63;;;10.63;;
1775;SDS011;885;42.626;23.200;2023-08-24T13:52:05;12.40;;;11.30;;
1775;SDS011;885;42.626;23.200;2023-08-24T13:54:32;13.27;;;11.87;;
1775;SDS011;885;42.626;23.200;2023-08-24T13:57:00;13.23;;;12.13;;
1775;SDS011;885;42.626;23.200;2023-08-24T13:59:27;14.87;;;12.30;;
1775;SDS011;885;42.626;23.200;2023-08-24T14:01:54;13.10;;;11.97;;
1775;SDS011;885;42.626;23.200;2023-08-24T14:04:21;13.20;;;11.87;;
1775;SDS011;885;42.626;23.200;2023-08-24T14:06:48;13.97;;;12.53;;
1775;SDS011;885;42.626;23.200;2023-08-24T14:09:15;11.83;;;10.63;;
1775;SDS011;885;42.626;23.200;2023-08-24T14:11:42;10.10;;;9.10;;
1775;SDS011;885;42.626;23.200;2023-08-24T14:14:10;11.90;;;10.70;;
1775;SDS011;885;42.626;23.200;2023-08-24T14:16:37;10.27;;;9.10;;
1775;SDS011;885;42.626;23.200;2023-08-24T14:19:03;11.73;;;10.53;;
1775;SDS011;885;42.626;23.200;2023-08-24T14:21:30;13.37;;;10.83;;
1775;SDS011;885;42.626;23.200;2023-08-24T14:23:57;10.73;;;9.80;;
1775;SDS011;885;42.626;23.200;2023-08-24T14:26:24;11.77;;;10.57;;
1775;SDS011;885;42.626;23.200;2023-08-24T14:28:52;17.20;;;10.90;;
1775;SDS011;885;42.626;23.200;2023-08-24T14:31:21;12.13;;;11.03;;
1775;SDS011;885;42.626;23.200;2023-08-24T14:33:48;11.87;;;10.40;;
1775;SDS011;885;42.626;23.200;2023-08-24T14:36:15;12.47;;;11.17;;
1775;SDS011;885;42.626;23.200;2023-08-24T14:38:42;11.03;;;9.93;;
1775;SDS011;885;42.626;23.200;2023-08-24T14:41:09;12.63;;;11.43;;
1775;SDS011;885;42.626;23.200;2023-08-24T14:43:37;11.00;;;9.90;;
1775;SDS011;885;42.626;23.200;2023-08-24T14:46:04;13.03;;;10.90;;
1775;SDS011;885;42.626;23.200;2023-08-24T14:48:32;12.00;;;9.90;;
1775;SDS011;885;42.626;23.200;2023-08-24T14:51:00;10.87;;;9.77;;
1775;SDS011;885;42.626;23.200;2023-08-24T14:53:27;9.63;;;8.67;;
1775;SDS011;885;42.626;23.200;2023-08-24T14:55:54;10.30;;;9.17;;
1775;SDS011;885;42.626;23.200;2023-08-24T14:58:22;10.13;;;9.23;;
1775;SDS011;885;42.626;23.200;2023-08-24T15:00:49;13.20;;;8.17;;
1775;SDS011;885;42.626;23.200;2023-08-24T15:03:17;11.60;;;9.47;;
1775;SDS011;885;42.626;23.200;2023-08-24T15:05:45;9.60;;;8.63;;